Time;durP1;ratioP1;P1;durP2;ratioP2;P2;SDS_P1;SDS_P2;PMS_P1;PMS_P2;Temp;Humidity;BMP_temperature;BMP_pressure;BME280_temperature;BME280_humidity;BME280_pressure;Samples;Min_cycle;Max_cycle;Signal;HPM_P1;HPM_P2
2023/04/14 00:01:46;;;;;;;3.20;2.60;;;21.60;61.70;;;;;;220515;1268;22546;-45
2023/04/14 00:06:51;;;;;;;3.70;2.40;;;21.60;61.30;;;;;;220846;1268;24172;-45
2023/04/14 00:11:56;;;;;;;3.60;2.30;;;21.60;61.40;;;;;;220641;1268;24235;-44
2023/04/14 00:17:00;;;;;;;3.20;2.40;;;21.60;61.40;;;;;;220964;1263;25337;-47
2023/04/14 00:22:04;;;;;;;3.00;2.30;;;21.50;61.40;;;;;;222219;1257;22672;-44
2023/04/14 00:27:12;;;;;;;4.30;2.60;;;21.50;61.70;;;;;;222363;1256;24066;-43
2023/04/14 00:32:16;;;;;;;6.30;2.50;;;21.60;61.60;;;;;;222244;1263;22513;-43
2023/04/14 00:37:20;;;;;;;4.50;2.70;;;21.60;61.40;;;;;;222086;1256;25451;-42
2023/04/14 00:42:24;;;;;;;3.10;2.20;;;21.90;61.10;;;;;;222198;1257;22664;-44
2023/04/14 00:47:28;;;;;;;2.60;2.10;;;22.20;60.90;;;;;;221923;1247;22585;-43
2023/04/14 00:52:32;;;;;;;2.60;2.20;;;22.50;59.30;;;;;;222056;1263;22537;-42
2023/04/14 00:57:37;;;;;;;2.10;1.90;;;22.70;58.60;;;;;;222020;1257;22881;-42
2023/04/14 01:02:42;;;;;;;2.10;1.80;;;23.00;58.10;;;;;;221914;1254;24039;-44
2023/04/14 01:07:47;;;;;;;3.10;2.00;;;23.00;57.80;;;;;;222238;1262;22620;-41
2023/04/14 01:13:26;;;;;;;1.70;1.60;;;23.00;57.70;;;;;;222249;1263;22613;-46
2023/04/14 01:18:50;;;;;;;2.80;1.90;;;23.00;57.80;;;;;;222023;1263;22517;-42
2023/04/14 01:24:14;;;;;;;2.80;2.00;;;23.00;57.80;;;;;;222038;1256;22521;-41
2023/04/14 01:29:40;;;;;;;2.20;2.00;;;23.00;57.70;;;;;;222234;1257;22518;-42
2023/04/14 01:34:47;;;;;;;2.20;1.90;;;23.00;58.10;;;;;;222456;1254;25384;-43
2023/04/14 01:39:52;;;;;;;3.00;1.90;;;23.10;57.70;;;;;;222088;1263;22527;-47
2023/04/14 01:45:04;;;;;;;2.00;1.90;;;23.20;57.40;;;;;;222251;1257;22646;-42
2023/04/14 01:50:10;;;;;;;2.60;1.90;;;23.20;57.20;;;;;;222149;1254;22519;-42
2023/04/14 01:55:17;;;;;;;1.90;1.80;;;23.30;57.40;;;;;;222209;1261;24191;-41
2023/04/14 02:00:23;;;;;;;2.10;1.90;;;23.30;56.90;;;;;;222151;1262;23936;-45
2023/04/14 02:05:29;;;;;;;2.80;2.20;;;23.30;56.90;;;;;;222132;1263;25236;-42
2023/04/14 02:10:36;;;;;;;1.90;1.60;;;23.30;57.10;;;;;;221923;1266;22517;-43
2023/04/14 02:15:41;;;;;;;2.60;1.80;;;23.20;57.10;;;;;;222128;1266;25334;-43
2023/04/14 02:20:47;;;;;;;1.60;1.50;;;23.10;57.10;;;;;;222284;1254;22521;-46
2023/04/14 02:25:55;;;;;;;1.60;1.50;;;23.00;57.20;;;;;;222075;1261;22527;-42
2023/04/14 02:31:04;;;;;;;2.60;1.40;;;23.00;57.20;;;;;;223302;1266;23065;-43
2023/04/14 02:36:19;;;;;;;2.00;1.80;;;23.00;57.30;;;;;;222451;1256;24362;-46
2023/04/14 02:41:28;;;;;;;2.10;1.90;;;23.00;58.00;;;;;;222408;1266;22623;-44
2023/04/14 02:46:39;;;;;;;2.00;1.80;;;22.80;58.10;;;;;;222379;1263;22511;-42
2023/04/14 02:51:46;;;;;;;3.30;1.70;;;22.70;58.30;;;;;;222364;1263;25204;-43
2023/04/14 02:56:51;;;;;;;1.80;1.50;;;22.60;58.30;;;;;;222510;1263;22520;-47
2023/04/14 03:02:04;;;;;;;1.70;1.60;;;22.60;58.50;;;;;;222338;1263;23011;-41
2023/04/14 03:07:13;;;;;;;1.70;1.60;;;22.50;58.30;;;;;;222290;1266;24263;-44
2023/04/14 03:12:19;;;;;;;2.00;1.70;;;22.50;58.40;;;;;;222240;1265;23880;-44
2023/04/14 03:17:25;;;;;;;1.70;1.60;;;22.40;58.50;;;;;;222466;1263;22511;-42
2023/04/14 03:22:34;;;;;;;1.50;1.40;;;22.30;58.10;;;;;;222594;1261;25386;-44
2023/04/14 03:27:41;;;;;;;1.50;1.40;;;22.30;58.90;;;;;;222323;1263;22530;-43
2023/04/14 03:32:48;;;;;;;1.80;1.40;;;22.20;58.80;;;;;;222381;1263;24242;-42
2023/04/14 03:37:58;;;;;;;1.60;1.50;;;22.20;58.90;;;;;;222311;1261;26721;-45
2023/04/14 03:43:08;;;;;;;1.60;1.50;;;22.10;58.90;;;;;;222251;1268;23907;-45
2023/04/14 03:48:16;;;;;;;1.80;1.50;;;22.10;59.00;;;;;;222328;1252;24266;-44
2023/04/14 03:53:25;;;;;;;1.50;1.40;;;22.10;58.90;;;;;;222430;1264;22505;-43
2023/04/14 03:58:31;;;;;;;2.20;1.90;;;22.10;58.90;;;;;;222344;1263;22633;-45
2023/04/14 04:03:37;;;;;;;1.70;1.60;;;22.10;58.90;;;;;;222414;1261;25690;-43
2023/04/14 04:08:43;;;;;;;1.70;1.60;;;22.00;59.10;;;;;;222643;1266;24117;-42
2023/04/14 04:13:48;;;;;;;2.00;1.20;;;22.00;59.10;;;;;;222406;1263;22514;-42
2023/04/14 04:18:53;;;;;;;1.50;1.40;;;21.90;59.20;;;;;;222135;1265;22515;-43
2023/04/14 04:24:05;;;;;;;1.40;1.30;;;21.90;59.60;;;;;;222669;1254;22560;-45
2023/04/14 04:29:10;;;;;;;1.70;1.40;;;21.90;59.40;;;;;;222334;1256;22530;-43
2023/04/14 04:34:16;;;;;;;2.70;1.70;;;21.90;59.30;;;;;;222430;1254;25488;-43
2023/04/14 04:39:21;;;;;;;2.00;1.50;;;21.80;59.40;;;;;;222286;1256;22660;-47
2023/04/14 04:44:25;;;;;;;1.60;1.40;;;21.80;59.30;;;;;;222444;1263;25462;-42
2023/04/14 04:49:30;;;;;;;1.70;1.60;;;21.80;59.40;;;;;;222277;1268;22543;-43
2023/04/14 04:54:38;;;;;;;2.60;1.60;;;21.80;59.30;;;;;;222669;1266;24206;-42
2023/04/14 04:59:42;;;;;;;1.80;1.60;;;21.80;59.30;;;;;;222213;1266;23882;-43
2023/04/14 05:04:47;;;;;;;1.60;1.50;;;21.90;59.30;;;;;;222237;1268;25675;-43
2023/04/14 05:09:51;;;;;;;1.30;1.20;;;22.30;58.70;;;;;;222313;1263;22505;-46
2023/04/14 05:14:55;;;;;;;2.00;1.80;;;22.50;58.10;;;;;;222310;1263;24249;-42
2023/04/14 05:20:00;;;;;;;1.90;1.60;;;22.70;57.30;;;;;;222369;1266;22508;-42
2023/04/14 05:25:05;;;;;;;1.80;1.70;;;23.00;57.60;;;;;;222069;1267;22533;-43
2023/04/14 05:30:10;;;;;;;1.50;1.40;;;23.00;56.50;;;;;;222486;1263;22491;-43
2023/04/14 05:35:14;;;;;;;1.70;1.60;;;23.00;56.50;;;;;;222495;1263;25297;-42
2023/04/14 05:40:20;;;;;;;1.70;1.60;;;23.10;56.50;;;;;;222146;1259;24205;-45
2023/04/14 05:45:24;;;;;;;1.50;1.40;;;23.10;56.50;;;;;;222124;1248;22907;-42
2023/04/14 05:50:29;;;;;;;1.60;1.50;;;23.10;56.40;;;;;;222164;1266;22517;-41
2023/04/14 05:55:33;;;;;;;3.60;1.50;;;23.20;56.30;;;;;;222299;1263;22500;-41
2023/04/14 06:00:37;;;;;;;5.70;2.10;;;23.20;56.60;;;;;;222403;1252;23876;-41
2023/04/14 06:05:41;;;;;;;7.40;2.50;;;23.40;56.70;;;;;;222255;1268;22662;-44
2023/04/14 06:10:46;;;;;;;4.70;2.30;;;23.30;57.20;;;;;;222338;1264;24202;-41
2023/04/14 06:15:50;;;;;;;7.50;2.30;;;23.30;57.80;;;;;;222521;1257;23766;-44
2023/04/14 06:20:54;;;;;;;2.30;2.10;;;23.20;57.80;;;;;;222198;1265;25343;-41
2023/04/14 06:25:58;;;;;;;4.90;2.40;;;23.10;57.90;;;;;;222363;1267;203397;-41
2023/04/14 06:31:02;;;;;;;2.70;2.00;;;23.20;57.50;;;;;;222328;1257;22642;-42
2023/04/14 06:36:07;;;;;;;2.10;1.90;;;23.20;58.00;;;;;;222360;1259;25305;-44
2023/04/14 06:41:11;;;;;;;9.40;2.20;;;23.10;57.80;;;;;;222345;1266;24183;-43
2023/04/14 06:46:16;;;;;;;8.70;4.50;;;23.10;58.10;;;;;;222270;1256;22520;-42
2023/04/14 06:51:20;;;;;;;7.80;2.50;;;23.10;57.80;;;;;;222213;1263;24176;-45
2023/04/14 06:56:24;;;;;;;7.90;2.20;;;23.10;58.40;;;;;;222409;1257;22512;-44
2023/04/14 07:01:28;;;;;;;9.50;4.10;;;23.10;58.70;;;;;;222325;1262;23063;-42
2023/04/14 07:06:32;;;;;;;5.60;2.30;;;23.00;58.30;;;;;;222097;1254;22553;-43
2023/04/14 07:11:36;;;;;;;7.00;2.80;;;22.90;58.00;;;;;;223897;1263;24173;-42
2023/04/14 07:16:40;;;;;;;4.20;2.80;;;22.90;57.80;;;;;;222120;1253;22512;-45
2023/04/14 07:21:45;;;;;;;5.10;3.50;;;22.80;57.50;;;;;;222040;1269;22643;-42
2023/04/14 07:26:49;;;;;;;4.50;3.00;;;22.60;57.70;;;;;;222310;1257;24184;-42
2023/04/14 07:31:54;;;;;;;5.00;2.80;;;22.60;57.80;;;;;;222188;1264;22514;-44
2023/04/14 07:36:59;;;;;;;8.70;3.30;;;22.60;57.90;;;;;;222243;1255;22511;-44
2023/04/14 07:42:03;;;;;;;4.10;3.20;;;22.60;57.90;;;;;;222221;1257;22624;-43
2023/04/14 07:47:07;;;;;;;4.10;3.50;;;22.50;58.20;;;;;;222169;1269;22656;-43
2023/04/14 07:52:11;;;;;;;5.10;3.20;;;22.50;57.90;;;;;;222247;1263;22547;-44
2023/04/14 07:57:15;;;;;;;5.00;3.60;;;22.40;57.90;;;;;;221759;1248;22508;-42
2023/04/14 08:02:21;;;;;;;5.10;3.40;;;22.40;57.80;;;;;;222208;1260;22567;-43
2023/04/14 08:07:27;;;;;;;5.20;3.50;;;22.40;57.80;;;;;;222381;1264;22513;-43
2023/04/14 08:12:31;;;;;;;4.60;3.30;;;22.30;58.10;;;;;;222471;1263;25527;-43
2023/04/14 08:17:35;;;;;;;5.00;4.50;;;22.30;57.90;;;;;;222318;1263;22523;-44
2023/04/14 08:22:39;;;;;;;4.10;3.70;;;22.20;57.70;;;;;;222119;1266;22523;-43
2023/04/14 08:27:43;;;;;;;4.90;4.10;;;22.20;58.10;;;;;;222143;1263;25314;-44
2023/04/14 08:32:47;;;;;;;4.50;4.10;;;22.10;58.00;;;;;;222246;1266;24211;-43
2023/04/14 08:37:51;;;;;;;5.20;4.10;;;22.10;58.10;;;;;;222168;1261;22549;-45
2023/04/14 08:42:56;;;;;;;4.40;4.00;;;22.10;57.70;;;;;;222265;1263;23924;-43
2023/04/14 08:48:02;;;;;;;4.20;3.80;;;22.10;58.10;;;;;;222082;1254;22643;-45
2023/04/14 08:53:08;;;;;;;5.30;3.80;;;22.00;58.20;;;;;;222351;1250;22599;-44
2023/04/14 08:58:13;;;;;;;4.60;4.20;;;22.00;58.10;;;;;;222034;1263;23943;-44
2023/04/14 09:03:17;;;;;;;4.90;4.00;;;22.00;58.10;;;;;;222072;1266;24263;-43
2023/04/14 09:08:22;;;;;;;4.30;3.90;;;22.00;58.10;;;;;;222381;1263;22522;-45
2023/04/14 09:13:28;;;;;;;4.80;4.40;;;21.90;58.40;;;;;;222253;1263;22514;-42
2023/04/14 09:18:32;;;;;;;4.80;4.30;;;22.00;58.40;;;;;;222470;1263;24306;-45
2023/04/14 09:23:40;;;;;;;5.10;4.60;;;21.90;58.00;;;;;;222017;1265;23208;-43
2023/04/14 09:28:44;;;;;;;4.60;4.20;;;21.90;58.00;;;;;;222429;1250;23528;-52
2023/04/14 09:33:51;;;;;;;5.30;4.80;;;21.90;58.10;;;;;;222317;1259;25340;-45
2023/04/14 09:38:56;;;;;;;5.70;4.60;;;21.90;58.40;;;;;;222471;1264;25343;-46
2023/04/14 09:44:07;;;;;;;5.10;4.20;;;21.80;58.30;;;;;;222109;1263;24363;-48
2023/04/14 09:49:11;;;;;;;4.80;4.40;;;21.80;58.50;;;;;;222266;1263;22809;-48
2023/04/14 09:54:25;;;;;;;5.40;4.90;;;21.80;58.50;;;;;;222305;1263;25330;-46
2023/04/14 09:59:31;;;;;;;6.30;5.40;;;21.80;58.50;;;;;;222210;1252;24212;-47
2023/04/14 10:04:37;;;;;;;5.30;4.90;;;21.80;58.50;;;;;;222492;1257;25268;-48
2023/04/14 10:09:41;;;;;;;6.80;6.20;;;21.90;58.50;;;;;;222267;1256;24088;-48
2023/04/14 10:14:45;;;;;;;5.60;5.10;;;21.80;58.20;;;;;;222182;1260;22567;-45
2023/04/14 10:19:50;;;;;;;7.20;5.50;;;21.80;58.20;;;;;;221891;1258;24378;-45
2023/04/14 10:24:55;;;;;;;7.80;5.90;;;21.80;58.30;;;;;;222031;1257;24250;-46
2023/04/14 10:30:01;;;;;;;5.80;5.30;;;21.80;58.30;;;;;;222031;1256;22938;-45
2023/04/14 10:35:12;;;;;;;6.30;5.60;;;21.80;58.30;;;;;;222044;1267;24184;-48
2023/04/14 10:40:16;;;;;;;6.40;5.80;;;21.80;58.40;;;;;;222177;1266;22521;-44
2023/04/14 10:45:21;;;;;;;6.70;5.90;;;21.80;58.90;;;;;;221892;1262;25341;-46
2023/04/14 10:50:27;;;;;;;6.30;5.60;;;22.00;57.90;;;;;;222111;1266;22515;-44
2023/04/14 10:55:45;;;;;;;6.30;5.60;;;22.40;57.30;;;;;;222076;1266;22518;-48
2023/04/14 11:00:57;;;;;;;6.20;5.60;;;22.60;57.10;;;;;;222153;1266;22586;-51
2023/04/14 11:06:01;;;;;;;5.80;5.40;;;22.80;56.70;;;;;;222054;1248;22633;-48
2023/04/14 11:11:06;;;;;;;6.90;6.20;;;23.00;55.90;;;;;;222114;1254;24303;-45
2023/04/14 11:16:11;;;;;;;6.60;5.90;;;23.00;55.70;;;;;;221896;1269;22539;-48
2023/04/14 11:21:16;;;;;;;6.50;5.90;;;23.10;55.50;;;;;;221844;1267;24355;-45
2023/04/14 11:26:23;;;;;;;6.90;5.50;;;23.30;55.10;;;;;;222086;1265;25575;-55
2023/04/14 11:31:27;;;;;;;6.70;6.10;;;23.40;55.10;;;;;;222053;1266;25319;-51
2023/04/14 11:36:35;;;;;;;7.00;5.90;;;23.40;54.90;;;;;;221944;1256;25379;-53
2023/04/14 11:41:39;;;;;;;7.20;6.50;;;23.50;54.90;;;;;;222311;1250;23889;-55
2023/04/14 11:46:43;;;;;;;6.40;5.90;;;23.60;54.70;;;;;;222209;1256;25328;-53
2023/04/14 11:51:47;;;;;;;7.10;6.30;;;23.70;54.70;;;;;;222013;1266;22912;-54
2023/04/14 11:56:51;;;;;;;7.20;5.70;;;23.70;54.80;;;;;;221900;1266;22540;-54
2023/04/14 12:01:56;;;;;;;6.10;5.50;;;23.60;55.00;;;;;;221752;1264;22511;-54
2023/04/14 12:07:01;;;;;;;35.40;8.30;;;23.50;55.10;;;;;;222145;1254;25475;-49
2023/04/14 12:12:13;;;;;;;8.90;6.70;;;23.60;55.10;;;;;;222086;1263;24397;-49
2023/04/14 12:17:38;;;;;;;6.80;6.20;;;23.40;55.70;;;;;;221857;1264;23816;-53
2023/04/14 12:22:42;;;;;;;8.30;6.50;;;23.40;55.70;;;;;;222120;1264;22567;-56
2023/04/14 12:27:52;;;;;;;7.20;6.50;;;23.30;55.90;;;;;;221711;1266;22652;-55
2023/04/14 12:33:08;;;;;;;7.10;6.30;;;23.30;56.00;;;;;;221719;1267;23892;-57
2023/04/14 12:38:13;;;;;;;8.80;6.40;;;23.30;56.00;;;;;;221804;1263;22659;-56
2023/04/14 12:43:27;;;;;;;7.40;6.80;;;23.20;56.10;;;;;;222025;1264;24255;-51
2023/04/14 12:48:45;;;;;;;8.00;6.50;;;23.10;56.20;;;;;;221877;1264;24011;-53
2023/04/14 12:53:50;;;;;;;6.80;6.20;;;23.20;56.30;;;;;;222219;1262;22531;-53
2023/04/14 12:58:55;;;;;;;6.90;6.20;;;23.20;56.20;;;;;;222009;1263;24224;-55
2023/04/14 13:04:00;;;;;;;9.70;7.40;;;23.10;56.10;;;;;;221796;1259;22655;-53
2023/04/14 13:09:04;;;;;;;8.70;7.00;;;23.10;56.10;;;;;;221861;1254;23677;-49
2023/04/14 13:14:09;;;;;;;6.70;6.00;;;23.00;56.40;;;;;;221975;1264;24416;-49
2023/04/14 13:19:13;;;;;;;9.10;7.30;;;22.90;56.80;;;;;;222903;1258;22521;-49
2023/04/14 13:24:17;;;;;;;9.40;7.30;;;23.00;56.70;;;;;;222854;1263;23125;-50
2023/04/14 13:29:21;;;;;;;8.10;7.50;;;23.00;56.80;;;;;;222091;1267;22566;-51
2023/04/14 13:34:27;;;;;;;11.10;8.60;;;23.00;56.50;;;;;;222138;1263;24201;-48
2023/04/14 13:39:31;;;;;;;8.50;7.80;;;23.00;56.20;;;;;;222480;1255;25259;-52
2023/04/14 13:44:36;;;;;;;10.40;9.20;;;22.90;56.50;;;;;;222451;1263;23909;-51
2023/04/14 13:49:40;;;;;;;12.20;8.80;;;22.90;56.50;;;;;;222296;1264;23918;-52
2023/04/14 13:54:44;;;;;;;10.20;9.20;;;22.90;56.60;;;;;;222383;1254;22707;-53
2023/04/14 13:59:49;;;;;;;11.30;9.70;;;22.80;56.80;;;;;;222167;1264;22511;-51
2023/04/14 14:04:53;;;;;;;11.60;10.10;;;22.70;56.90;;;;;;222508;1264;25363;-50
2023/04/14 14:09:56;;;;;;;13.00;10.80;;;22.80;56.40;;;;;;222830;1246;22682;-49
2023/04/14 14:15:01;;;;;;;11.80;10.00;;;22.90;56.90;;;;;;222360;1263;24298;-53
2023/04/14 14:20:08;;;;;;;11.80;10.30;;;23.00;57.40;;;;;;222377;1262;24198;-49
2023/04/14 14:25:12;;;;;;;12.40;10.60;;;22.90;58.00;;;;;;222167;1263;27733;-51
2023/04/14 14:30:25;;;;;;;11.50;9.60;;;22.90;58.80;;;;;;222239;1267;22636;-50
2023/04/14 14:35:29;;;;;;;10.90;9.70;;;22.90;59.50;;;;;;222044;1263;22525;-52
2023/04/14 14:40:33;;;;;;;12.50;10.90;;;22.90;60.00;;;;;;222342;1266;24315;-52
2023/04/14 14:45:37;;;;;;;13.10;11.70;;;22.80;60.50;;;;;;222351;1263;22522;-49
2023/04/14 14:50:41;;;;;;;14.00;11.20;;;22.80;60.80;;;;;;222165;1254;22637;-53
2023/04/14 14:55:45;;;;;;;16.20;11.00;;;22.70;62.50;;;;;;222639;1258;22514;-52
2023/04/14 15:00:49;;;;;;;22.30;12.60;;;22.60;62.90;;;;;;222257;1256;24167;-53
2023/04/14 15:05:53;;;;;;;15.80;11.00;;;22.70;63.60;;;;;;222409;1263;22530;-48
2023/04/14 15:10:57;;;;;;;22.00;12.40;;;22.70;63.90;;;;;;222403;1261;22748;-47
2023/04/14 15:16:01;;;;;;;20.40;11.50;;;22.60;64.20;;;;;;222300;1260;22975;-53
2023/04/14 15:21:05;;;;;;;13.30;10.70;;;22.60;64.50;;;;;;222154;1258;22521;-48
2023/04/14 15:26:15;;;;;;;15.10;11.00;;;22.60;64.80;;;;;;222341;1254;22761;-49
2023/04/14 15:31:19;;;;;;;13.70;11.70;;;22.50;64.30;;;;;;222392;1254;24256;-51
2023/04/14 15:36:23;;;;;;;21.30;11.10;;;22.40;64.40;;;;;;222277;1257;25411;-48
2023/04/14 15:41:27;;;;;;;12.90;11.30;;;22.40;64.20;;;;;;222557;1254;22538;-51
2023/04/14 15:46:31;;;;;;;14.50;12.20;;;22.40;64.00;;;;;;222490;1264;22618;-44
2023/04/14 15:51:36;;;;;;;15.30;12.50;;;22.30;64.40;;;;;;222155;1254;22671;-46
2023/04/14 15:56:41;;;;;;;19.60;12.00;;;22.30;64.10;;;;;;222449;1266;22513;-43
2023/04/14 16:01:45;;;;;;;17.80;11.50;;;22.30;64.70;;;;;;222418;1263;25419;-46
2023/04/14 16:06:50;;;;;;;14.80;12.20;;;22.30;63.70;;;;;;222158;1263;22637;-43
2023/04/14 16:11:55;;;;;;;14.70;12.30;;;22.30;64.20;;;;;;222435;1247;22527;-45
2023/04/14 16:17:00;;;;;;;14.70;12.50;;;22.30;64.50;;;;;;222133;1264;24203;-43
2023/04/14 16:22:04;;;;;;;14.60;11.30;;;22.30;63.80;;;;;;222135;1263;22616;-43
2023/04/14 16:27:08;;;;;;;13.90;11.60;;;22.30;64.30;;;;;;222460;1254;23707;-47
2023/04/14 16:32:16;;;;;;;17.90;11.60;;;22.20;64.70;;;;;;222335;1264;22782;-45
2023/04/14 16:37:24;;;;;;;12.50;11.30;;;22.10;64.00;;;;;;222407;1257;22787;-45
2023/04/14 16:42:29;;;;;;;17.00;11.30;;;22.20;63.80;;;;;;222540;1255;25223;-46
2023/04/14 16:47:34;;;;;;;18.10;12.00;;;22.30;63.70;;;;;;222374;1258;22632;-46
2023/04/14 16:52:42;;;;;;;18.80;11.40;;;22.30;63.30;;;;;;222425;1253;22637;-46
2023/04/14 16:57:51;;;;;;;13.80;10.70;;;22.30;63.50;;;;;;222274;1254;22526;-45
2023/04/14 17:02:56;;;;;;;14.50;11.10;;;22.40;63.40;;;;;;222500;1260;22520;-45
2023/04/14 17:08:02;;;;;;;12.40;10.80;;;22.40;62.50;;;;;;222607;1260;25343;-48
2023/04/14 17:13:07;;;;;;;13.10;11.00;;;22.50;62.70;;;;;;222232;1253;25454;-44
2023/04/14 17:18:12;;;;;;;12.80;10.70;;;22.50;62.50;;;;;;222437;1257;24450;-46
2023/04/14 17:23:20;;;;;;;12.00;10.60;;;22.50;62.80;;;;;;222388;1260;22508;-44
2023/04/14 17:28:27;;;;;;;14.40;11.20;;;22.50;63.80;;;;;;222475;1253;23026;-45
2023/04/14 17:33:33;;;;;;;15.40;11.70;;;22.60;63.30;;;;;;222583;1255;22669;-44
2023/04/14 17:38:42;;;;;;;12.20;10.80;;;22.50;63.70;;;;;;222129;1247;22527;-46
2023/04/14 17:43:49;;;;;;;12.40;11.20;;;22.50;62.90;;;;;;222494;1253;25258;-49
2023/04/14 17:48:56;;;;;;;12.10;10.30;;;22.60;63.20;;;;;;222413;1263;23016;-47
2023/04/14 17:54:17;;;;;;;11.60;10.40;;;22.60;62.90;;;;;;222693;1253;26623;-50
2023/04/14 17:59:24;;;;;;;11.90;10.70;;;22.40;63.30;;;;;;222400;1260;22522;-48
2023/04/14 18:04:31;;;;;;;11.00;9.90;;;22.30;64.10;;;;;;222560;1256;24250;-46
2023/04/14 18:09:43;;;;;;;11.10;9.90;;;22.30;63.70;;;;;;222554;1249;23158;-48
2023/04/14 18:14:52;;;;;;;14.90;10.00;;;22.20;63.60;;;;;;222253;1259;22514;-47
2023/04/14 18:20:03;;;;;;;11.70;10.50;;;22.10;64.20;;;;;;222530;1253;24176;-51
2023/04/14 18:25:09;;;;;;;14.40;10.90;;;22.10;64.00;;;;;;222334;1256;249678;-48
2023/04/14 18:30:15;;;;;;;12.80;10.60;;;22.10;64.20;;;;;;222527;1254;25383;-48
2023/04/14 18:35:23;;;;;;;12.00;10.40;;;22.10;64.20;;;;;;222675;1257;22633;-48
2023/04/14 18:40:31;;;;;;;12.90;11.60;;;22.10;64.10;;;;;;222637;1253;25467;-47
2023/04/14 18:45:47;;;;;;;14.10;10.40;;;22.00;63.90;;;;;;222722;1254;24651;-46
2023/04/14 18:51:06;;;;;;;14.20;10.90;;;22.00;64.50;;;;;;222590;1260;22623;-47
2023/04/14 18:56:13;;;;;;;21.70;12.10;;;22.20;63.60;;;;;;222783;1260;22515;-46
2023/04/14 19:01:21;;;;;;;13.30;10.70;;;22.30;63.40;;;;;;222469;1253;22510;-48
2023/04/14 19:06:27;;;;;;;12.40;11.10;;;22.30;64.40;;;;;;222406;1259;22898;-50
2023/04/14 19:11:34;;;;;;;12.20;10.90;;;22.20;63.00;;;;;;222375;1260;25213;-48
2023/04/14 19:16:42;;;;;;;13.90;10.70;;;22.20;63.10;;;;;;222477;1263;23950;-48
2023/04/14 19:21:51;;;;;;;13.10;11.80;;;22.10;63.30;;;;;;222229;1260;22555;-45
2023/04/14 19:26:57;;;;;;;16.90;11.50;;;22.10;64.50;;;;;;222110;1253;24319;-45
2023/04/14 19:32:04;;;;;;;22.70;13.90;;;22.10;64.10;;;;;;222282;1256;22581;-47
2023/04/14 19:37:12;;;;;;;14.60;11.70;;;22.10;64.50;;;;;;222328;1247;22524;-48
2023/04/14 19:42:19;;;;;;;12.50;11.20;;;22.00;64.50;;;;;;222427;1253;24215;-46
2023/04/14 19:47:25;;;;;;;13.90;12.30;;;22.10;63.60;;;;;;222326;1259;22567;-47
2023/04/14 19:52:31;;;;;;;12.40;11.20;;;22.20;63.70;;;;;;222271;1258;22508;-47
2023/04/14 19:57:38;;;;;;;12.60;11.40;;;22.30;62.80;;;;;;222468;1250;24311;-47
2023/04/14 20:03:00;;;;;;;18.40;11.70;;;22.20;63.30;;;;;;222302;1248;22536;-45
2023/04/14 20:08:06;;;;;;;14.80;11.80;;;22.30;63.70;;;;;;222144;1268;25191;-47
2023/04/14 20:13:11;;;;;;;15.60;11.50;;;22.30;64.10;;;;;;222635;1247;24228;-55
2023/04/14 20:18:21;;;;;;;14.30;11.50;;;22.30;64.10;;;;;;222273;1257;23922;-54
2023/04/14 20:23:34;;;;;;;17.10;12.20;;;22.30;64.20;;;;;;222512;1248;25320;-54
2023/04/14 20:28:41;;;;;;;15.90;11.90;;;22.30;65.30;;;;;;222422;1251;23017;-54
2023/04/14 20:33:51;;;;;;;16.60;11.40;;;22.30;65.00;;;;;;222263;1266;22531;-53
2023/04/14 20:38:59;;;;;;;16.30;11.90;;;22.40;64.90;;;;;;224953;1260;22517;-54
2023/04/14 20:44:03;;;;;;;17.10;11.80;;;22.40;64.60;;;;;;222177;1263;25268;-55
2023/04/14 20:49:10;;;;;;;14.40;11.60;;;22.50;64.40;;;;;;222413;1263;23764;-57
2023/04/14 20:54:14;;;;;;;19.10;12.30;;;22.40;64.60;;;;;;222546;1266;25576;-56
2023/04/14 20:59:20;;;;;;;18.20;12.80;;;22.30;64.70;;;;;;222482;1263;24288;-56
2023/04/14 21:04:25;;;;;;;21.50;12.70;;;22.30;64.70;;;;;;222498;1253;24215;-55
2023/04/14 21:09:30;;;;;;;25.00;14.00;;;22.20;64.60;;;;;;222046;1252;22648;-55
2023/04/14 21:14:34;;;;;;;18.50;12.20;;;22.30;64.70;;;;;;222408;1247;24365;-55
2023/04/14 21:20:00;;;;;;;19.20;11.90;;;22.20;64.70;;;;;;222125;1261;25537;-46
2023/04/14 21:25:05;;;;;;;20.60;12.90;;;22.20;64.80;;;;;;222298;1258;22816;-42
2023/04/14 21:30:09;;;;;;;15.30;12.40;;;22.20;64.60;;;;;;222421;1253;22511;-43
2023/04/14 21:35:15;;;;;;;19.60;12.60;;;22.10;64.70;;;;;;222463;1263;24176;-45
2023/04/14 21:40:19;;;;;;;19.90;12.00;;;22.00;64.70;;;;;;222505;1256;24318;-44
2023/04/14 21:45:23;;;;;;;19.90;12.50;;;22.00;64.70;;;;;;222053;1247;24230;-43
2023/04/14 21:50:28;;;;;;;19.00;12.00;;;22.00;65.00;;;;;;222349;1256;22501;-44
2023/04/14 21:55:35;;;;;;;13.90;11.20;;;21.90;64.60;;;;;;222238;1253;25236;-44
2023/04/14 22:00:40;;;;;;;17.90;12.60;;;21.90;64.60;;;;;;222391;1253;24288;-45
2023/04/14 22:05:44;;;;;;;20.40;13.20;;;22.00;66.10;;;;;;222760;1260;22523;-44
2023/04/14 22:10:48;;;;;;;17.30;11.90;;;22.00;67.40;;;;;;222462;1260;22630;-44
2023/04/14 22:15:53;;;;;;;17.90;11.40;;;22.00;67.30;;;;;;222248;1254;24352;-43
2023/04/14 22:20:57;;;;;;;16.70;11.80;;;22.00;66.60;;;;;;222321;1256;22504;-44
2023/04/14 22:26:02;;;;;;;17.40;12.50;;;22.00;66.40;;;;;;222217;1257;22740;-43
2023/04/14 22:31:06;;;;;;;15.30;12.60;;;21.90;66.40;;;;;;222335;1258;22525;-43
2023/04/14 22:36:10;;;;;;;19.60;12.40;;;21.90;66.50;;;;;;222327;1254;22510;-44
2023/04/14 22:41:15;;;;;;;14.50;11.90;;;21.90;66.10;;;;;;222281;1260;25381;-42
2023/04/14 22:46:19;;;;;;;16.70;12.10;;;21.90;65.60;;;;;;230256;1262;22277;-43
2023/04/14 22:51:23;;;;;;;17.90;12.80;;;21.90;65.70;;;;;;230164;1263;22345;-44
2023/04/14 22:56:27;;;;;;;21.90;12.30;;;22.00;65.00;;;;;;222275;1263;24170;-43
2023/04/14 23:01:31;;;;;;;15.00;11.80;;;22.10;64.90;;;;;;222456;1254;22797;-44
2023/04/14 23:06:35;;;;;;;13.80;12.00;;;21.90;65.30;;;;;;222154;1263;24185;-44
2023/04/14 23:11:39;;;;;;;13.00;10.90;;;21.80;65.40;;;;;;222358;1261;24226;-45
2023/04/14 23:16:43;;;;;;;14.50;11.80;;;21.70;65.20;;;;;;222176;1253;24199;-42
2023/04/14 23:21:47;;;;;;;15.00;11.60;;;21.70;65.70;;;;;;222257;1256;22642;-46
2023/04/14 23:26:51;;;;;;;16.00;12.00;;;21.70;65.40;;;;;;221971;1263;22637;-43
2023/04/14 23:31:56;;;;;;;14.90;11.80;;;21.70;65.30;;;;;;222398;1263;23671;-44
2023/04/14 23:37:00;;;;;;;16.40;11.40;;;21.70;65.50;;;;;;222179;1263;24423;-42
2023/04/14 23:42:04;;;;;;;14.60;11.60;;;21.70;65.30;;;;;;221975;1253;22568;-42
2023/04/14 23:47:08;;;;;;;15.20;10.60;;;21.70;65.20;;;;;;222042;1261;22643;-44
2023/04/14 23:52:12;;;;;;;15.70;11.30;;;21.70;65.30;;;;;;222068;1262;22585;-44
2023/04/14 23:57:16;;;;;;;14.60;11.20;;;21.70;65.20;;;;;;222621;1253;25296;-44
